Yusyun — JD3373 — position and weather

sailwx.info

Track history (hours):
 
Tides and Currents Weather Stations Pressure Air Temp Water Temp Dewpoint Dewpoint Depression Visibility Wind Speed Wind Dir Waves Ship Positions

Yusyun

Last reported at 2018-Jun-21 11:29 UTC. Time now 2018-Jun-21 11:45 UTC.
Position N 34°37' E 134°58'.

Length 61 m; draft 3.7 m.

Type: Cargo ship. MMSI: 431003628.

Date/timePositionNaut miles runAvg speedWind from/ knotsBaromVisibWave heightAir tempDewpointWater temp
2018-Jun-21 11:29N 34°37' E 134°58'4 8.9
2018-Jun-21 11:00N 34°37' E 135°03'5 9.8
2018-Jun-21 10:30N 34°37' E 135°09'611.0
2018-Jun-21 10:00N 34°38' E 135°15'5 9.9
2018-Jun-21 09:30N 34°42' E 135°18'0 0.4
2018-Jun-21 09:00N 34°42' E 135°18'0 0.0
2018-Jun-21 08:30N 34°42' E 135°18'0 0.0
2018-Jun-21 07:59N 34°42' E 135°18'0 0.0
2018-Jun-21 07:30N 34°42' E 135°18'0 0.0
2018-Jun-21 06:56N 34°42' E 135°18'0 0.0
2018-Jun-21 06:25N 34°42' E 135°18'0 0.0
2018-Jun-21 06:00N 34°42' E 135°18'0 0.6
2018-Jun-21 05:30N 34°42' E 135°18'0 0.6
2018-Jun-21 05:00N 34°42' E 135°18'0 0.0
2018-Jun-21 04:30N 34°42' E 135°18'0 0.0
2018-Jun-21 04:00N 34°42' E 135°18'0 0.0
2018-Jun-21 03:30N 34°42' E 135°18'0 0.0
2018-Jun-21 03:00N 34°42' E 135°18'0 0.0
2018-Jun-21 02:30N 34°42' E 135°18'0 0.0
2018-Jun-21 02:00N 34°42' E 135°18'0 0.0
2018-Jun-21 01:29N 34°42' E 135°18'0 0.0
2018-Jun-21 01:00N 34°42' E 135°18'0 0.0
2018-Jun-21 00:30N 34°42' E 135°18'0 0.0
2018-Jun-21 00:00N 34°42' E 135°18'0 0.0
2018-Jun-20 23:30N 34°42' E 135°18'0 0.0
2018-Jun-20 23:00N 34°42' E 135°18'0 0.1
2018-Jun-20 22:30N 34°42' E 135°18'0 0.0
2018-Jun-20 22:00N 34°42' E 135°18'0 0.0
2018-Jun-20 21:30N 34°42' E 135°18'0 0.0
2018-Jun-20 20:57N 34°42' E 135°18'0 0.1
2018-Jun-20 20:30N 34°42' E 135°18'0 0.0
2018-Jun-20 20:00N 34°42' E 135°18'0 0.1
2018-Jun-20 19:30N 34°42' E 135°18'0 0.0
2018-Jun-20 18:59N 34°42' E 135°18'0 0.1
2018-Jun-20 18:30N 34°42' E 135°18'0 0.0
2018-Jun-20 18:00N 34°42' E 135°18'0 0.0
2018-Jun-20 17:30N 34°42' E 135°18'0 0.0
2018-Jun-20 17:00N 34°42' E 135°18'1 1.6
2018-Jun-20 16:30N 34°41' E 135°18'510.3
2018-Jun-20 16:00N 34°37' E 135°14'611.1
2018-Jun-20 15:30N 34°35' E 135°08'5 9.2
2018-Jun-20 15:00N 34°36' E 135°02'10 9.5
2018-Jun-20 13:58N 34°34' E 134°51'511.1
2018-Jun-20 13:30N 34°32' E 134°45'611.0
2018-Jun-20 12:57N 34°29' E 134°38'511.0
2018-Jun-20 12:30N 34°27' E 134°33'  
2018-Jun-18 00:04N 34°07' E 134°46'110.0
2018-Jun-17 23:55N 34°06' E 134°47'1010.1
2018-Jun-17 22:58N 33°58' E 134°55'510.3
2018-Jun-17 22:29N 33°55' E 134°59'510.5
2018-Jun-17 22:00N 33°51' E 135°03'  
2018-Jun-13 22:17N 33°51' E 135°02'310.7
2018-Jun-13 22:01N 33°54' E 134°60'510.1
2018-Jun-13 21:31N 33°58' E 134°56'510.1
2018-Jun-13 21:00N 34°01' E 134°52'510.1
2018-Jun-13 20:28N 34°06' E 134°48'710.3
2018-Jun-13 19:46N 34°11' E 134°42'311.1
2018-Jun-13 19:30N 34°13' E 134°40'910.0
2018-Jun-13 18:38N 34°18' E 134°31'210.8
2018-Jun-13 18:29N 34°18' E 134°29'510.8
2018-Jun-13 18:00N 34°20' E 134°23'  
Track history (hours):
 
Tides and Currents Weather Stations Pressure Air Temp Water Temp Dewpoint Dewpoint Depression Visibility Wind Speed Wind Dir Waves Ship Positions

Yusyun

Last reported at 2018-Jun-21 11:29 UTC. Time now 2018-Jun-21 11:45 UTC.
Position N 34°37' E 134°58'.

Length 61 m; draft 3.7 m.

Type: Cargo ship. MMSI: 431003628.

Date/timePositionNaut miles runAvg speedWind from/ knotsBaromVisibWave heightAir tempDewpointWater temp
2018-Jun-21 11:29N 34°37' E 134°58'4 8.9
2018-Jun-21 11:00N 34°37' E 135°03'5 9.8
2018-Jun-21 10:30N 34°37' E 135°09'611.0
2018-Jun-21 10:00N 34°38' E 135°15'5 9.9
2018-Jun-21 09:30N 34°42' E 135°18'0 0.4
2018-Jun-21 09:00N 34°42' E 135°18'0 0.0
2018-Jun-21 08:30N 34°42' E 135°18'0 0.0
2018-Jun-21 07:59N 34°42' E 135°18'0 0.0
2018-Jun-21 07:30N 34°42' E 135°18'0 0.0
2018-Jun-21 06:56N 34°42' E 135°18'0 0.0
2018-Jun-21 06:25N 34°42' E 135°18'0 0.0
2018-Jun-21 06:00N 34°42' E 135°18'0 0.6
2018-Jun-21 05:30N 34°42' E 135°18'0 0.6
2018-Jun-21 05:00N 34°42' E 135°18'0 0.0
2018-Jun-21 04:30N 34°42' E 135°18'0 0.0
2018-Jun-21 04:00N 34°42' E 135°18'0 0.0
2018-Jun-21 03:30N 34°42' E 135°18'0 0.0
2018-Jun-21 03:00N 34°42' E 135°18'0 0.0
2018-Jun-21 02:30N 34°42' E 135°18'0 0.0
2018-Jun-21 02:00N 34°42' E 135°18'0 0.0
2018-Jun-21 01:29N 34°42' E 135°18'0 0.0
2018-Jun-21 01:00N 34°42' E 135°18'0 0.0
2018-Jun-21 00:30N 34°42' E 135°18'0 0.0
2018-Jun-21 00:00N 34°42' E 135°18'0 0.0
2018-Jun-20 23:30N 34°42' E 135°18'0 0.0
2018-Jun-20 23:00N 34°42' E 135°18'0 0.1
2018-Jun-20 22:30N 34°42' E 135°18'0 0.0
2018-Jun-20 22:00N 34°42' E 135°18'0 0.0
2018-Jun-20 21:30N 34°42' E 135°18'0 0.0
2018-Jun-20 20:57N 34°42' E 135°18'0 0.1
2018-Jun-20 20:30N 34°42' E 135°18'0 0.0
2018-Jun-20 20:00N 34°42' E 135°18'0 0.1
2018-Jun-20 19:30N 34°42' E 135°18'0 0.0
2018-Jun-20 18:59N 34°42' E 135°18'0 0.1
2018-Jun-20 18:30N 34°42' E 135°18'0 0.0
2018-Jun-20 18:00N 34°42' E 135°18'0 0.0
2018-Jun-20 17:30N 34°42' E 135°18'0 0.0
2018-Jun-20 17:00N 34°42' E 135°18'1 1.6
2018-Jun-20 16:30N 34°41' E 135°18'510.3
2018-Jun-20 16:00N 34°37' E 135°14'611.1
2018-Jun-20 15:30N 34°35' E 135°08'5 9.2
2018-Jun-20 15:00N 34°36' E 135°02'10 9.5
2018-Jun-20 13:58N 34°34' E 134°51'511.1
2018-Jun-20 13:30N 34°32' E 134°45'611.0
2018-Jun-20 12:57N 34°29' E 134°38'511.0
2018-Jun-20 12:30N 34°27' E 134°33'  
2018-Jun-18 00:04N 34°07' E 134°46'110.0
2018-Jun-17 23:55N 34°06' E 134°47'1010.1
2018-Jun-17 22:58N 33°58' E 134°55'510.3
2018-Jun-17 22:29N 33°55' E 134°59'510.5
2018-Jun-17 22:00N 33°51' E 135°03'  
2018-Jun-13 22:17N 33°51' E 135°02'310.7
2018-Jun-13 22:01N 33°54' E 134°60'510.1
2018-Jun-13 21:31N 33°58' E 134°56'510.1
2018-Jun-13 21:00N 34°01' E 134°52'510.1
2018-Jun-13 20:28N 34°06' E 134°48'710.3
2018-Jun-13 19:46N 34°11' E 134°42'311.1
2018-Jun-13 19:30N 34°13' E 134°40'910.0
2018-Jun-13 18:38N 34°18' E 134°31'210.8
2018-Jun-13 18:29N 34°18' E 134°29'510.8
2018-Jun-13 18:00N 34°20' E 134°23'  

Dump ship's entire track history